sensor_id;sensor_type;location;lat;lon;timestamp;temperature;humidity
1417;DHT22;703;51.162;13.574;2023-08-21T00:01:40;22.40;99.90
1417;DHT22;703;51.162;13.574;2023-08-21T00:04:05;23.60;99.90
1417;DHT22;703;51.162;13.574;2023-08-21T00:06:31;22.40;99.90
1417;DHT22;703;51.162;13.574;2023-08-21T00:08:56;22.80;99.90
1417;DHT22;703;51.162;13.574;2023-08-21T00:11:22;22.40;99.90
1417;DHT22;703;51.162;13.574;2023-08-21T00:13:47;22.40;99.90
1417;DHT22;703;51.162;13.574;2023-08-21T00:16:15;24.40;99.90
1417;DHT22;703;51.162;13.574;2023-08-21T00:18:41;22.20;99.90
1417;DHT22;703;51.162;13.574;2023-08-21T00:21:06;22.30;99.90
1417;DHT22;703;51.162;13.574;2023-08-21T00:23:32;22.10;99.90
1417;DHT22;703;51.162;13.574;2023-08-21T00:25:57;23.30;99.90
1417;DHT22;703;51.162;13.574;2023-08-21T00:28:23;22.60;99.90
1417;DHT22;703;51.162;13.574;2023-08-21T00:30:48;22.00;99.90
1417;DHT22;703;51.162;13.574;2023-08-21T00:33:14;23.00;99.90
1417;DHT22;703;51.162;13.574;2023-08-21T00:35:39;23.50;99.90
1417;DHT22;703;51.162;13.574;2023-08-21T00:38:04;22.00;99.90
1417;DHT22;703;51.162;13.574;2023-08-21T00:40:31;22.20;99.90
1417;DHT22;703;51.162;13.574;2023-08-21T00:42:56;23.00;99.90
1417;DHT22;703;51.162;13.574;2023-08-21T00:45:22;21.80;99.90
1417;DHT22;703;51.162;13.574;2023-08-21T00:47:47;22.20;99.90
1417;DHT22;703;51.162;13.574;2023-08-21T00:50:13;21.70;99.90
1417;DHT22;703;51.162;13.574;2023-08-21T00:52:39;21.70;99.90
1417;DHT22;703;51.162;13.574;2023-08-21T00:55:06;21.80;99.90
1417;DHT22;703;51.162;13.574;2023-08-21T00:57:31;21.70;99.90
1417;DHT22;703;51.162;13.574;2023-08-21T00:59:59;21.80;99.90
1417;DHT22;703;51.162;13.574;2023-08-21T01:02:25;21.80;99.90
1417;DHT22;703;51.162;13.574;2023-08-21T01:04:50;21.70;99.90
1417;DHT22;703;51.162;13.574;2023-08-21T01:07:16;22.90;99.90
1417;DHT22;703;51.162;13.574;2023-08-21T01:12:28;21.80;99.90
1417;DHT22;703;51.162;13.574;2023-08-21T01:14:57;21.70;99.90
1417;DHT22;703;51.162;13.574;2023-08-21T01:17:24;21.70;99.90
1417;DHT22;703;51.162;13.574;2023-08-21T01:19:49;21.60;99.90
1417;DHT22;703;51.162;13.574;2023-08-21T01:22:15;21.50;99.90
1417;DHT22;703;51.162;13.574;2023-08-21T01:24:41;21.50;99.90
1417;DHT22;703;51.162;13.574;2023-08-21T01:27:06;21.60;99.90
1417;DHT22;703;51.162;13.574;2023-08-21T01:29:32;21.40;99.90
1417;DHT22;703;51.162;13.574;2023-08-21T01:32:01;21.60;99.90
1417;DHT22;703;51.162;13.574;2023-08-21T01:34:28;21.40;99.90
1417;DHT22;703;51.162;13.574;2023-08-21T01:36:55;21.50;99.90
1417;DHT22;703;51.162;13.574;2023-08-21T01:39:20;21.30;99.90
1417;DHT22;703;51.162;13.574;2023-08-21T01:41:46;21.30;99.90
1417;DHT22;703;51.162;13.574;2023-08-21T01:44:11;21.20;99.90
1417;DHT22;703;51.162;13.574;2023-08-21T01:46:37;22.30;99.90
1417;DHT22;703;51.162;13.574;2023-08-21T01:49:02;21.10;99.90
1417;DHT22;703;51.162;13.574;2023-08-21T01:51:28;21.10;99.90
1417;DHT22;703;51.162;13.574;2023-08-21T01:53:53;22.00;99.90
1417;DHT22;703;51.162;13.574;2023-08-21T01:56:19;21.10;99.90
1417;DHT22;703;51.162;13.574;2023-08-21T01:58:44;21.00;99.90
1417;DHT22;703;51.162;13.574;2023-08-21T02:01:09;21.10;99.90
1417;DHT22;703;51.162;13.574;2023-08-21T02:03:35;21.00;99.90
1417;DHT22;703;51.162;13.574;2023-08-21T02:06:01;21.00;99.90
1417;DHT22;703;51.162;13.574;2023-08-21T02:08:27;21.00;99.90
1417;DHT22;703;51.162;13.574;2023-08-21T02:10:55;21.00;99.90
1417;DHT22;703;51.162;13.574;2023-08-21T02:13:21;21.10;99.90
1417;DHT22;703;51.162;13.574;2023-08-21T02:15:46;21.20;99.90
1417;DHT22;703;51.162;13.574;2023-08-21T02:18:12;21.20;99.90
1417;DHT22;703;51.162;13.574;2023-08-21T02:20:37;21.20;99.90
1417;DHT22;703;51.162;13.574;2023-08-21T02:23:03;21.20;99.90
1417;DHT22;703;51.162;13.574;2023-08-21T02:25:29;21.10;99.90
1417;DHT22;703;51.162;13.574;2023-08-21T02:27:54;21.10;99.90
1417;DHT22;703;51.162;13.574;2023-08-21T02:30:20;21.10;99.90
1417;DHT22;703;51.162;13.574;2023-08-21T02:32:45;21.00;99.90
1417;DHT22;703;51.162;13.574;2023-08-21T02:35:11;21.00;99.90
1417;DHT22;703;51.162;13.574;2023-08-21T02:37:36;21.00;99.90
1417;DHT22;703;51.162;13.574;2023-08-21T02:40:05;21.00;99.90
1417;DHT22;703;51.162;13.574;2023-08-21T02:42:33;21.00;99.90
1417;DHT22;703;51.162;13.574;2023-08-21T02:44:58;22.80;99.90
1417;DHT22;703;51.162;13.574;2023-08-21T02:47:24;21.10;99.90
1417;DHT22;703;51.162;13.574;2023-08-21T02:49:49;21.00;99.90
1417;DHT22;703;51.162;13.574;2023-08-21T02:52:15;21.00;99.90
1417;DHT22;703;51.162;13.574;2023-08-21T02:54:40;21.10;99.90
1417;DHT22;703;51.162;13.574;2023-08-21T02:57:06;22.80;99.90
1417;DHT22;703;51.162;13.574;2023-08-21T02:59:31;21.00;99.90
1417;DHT22;703;51.162;13.574;2023-08-21T03:01:57;21.00;99.90
1417;DHT22;703;51.162;13.574;2023-08-21T03:04:22;21.00;99.90
1417;DHT22;703;51.162;13.574;2023-08-21T03:06:48;21.00;99.90
1417;DHT22;703;51.162;13.574;2023-08-21T03:09:14;20.90;99.90
1417;DHT22;703;51.162;13.574;2023-08-21T03:11:39;20.90;99.90
1417;DHT22;703;51.162;13.574;2023-08-21T03:14:04;20.80;99.90
1417;DHT22;703;51.162;13.574;2023-08-21T03:16:30;20.80;99.90
1417;DHT22;703;51.162;13.574;2023-08-21T03:18:56;20.70;99.90
1417;DHT22;703;51.162;13.574;2023-08-21T03:21:22;20.60;99.90
1417;DHT22;703;51.162;13.574;2023-08-21T03:23:50;21.00;99.90
1417;DHT22;703;51.162;13.574;2023-08-21T03:26:15;20.90;99.90
1417;DHT22;703;51.162;13.574;2023-08-21T03:28:41;20.60;99.90
1417;DHT22;703;51.162;13.574;2023-08-21T03:31:06;20.60;99.90
1417;DHT22;703;51.162;13.574;2023-08-21T03:33:31;20.60;99.90
1417;DHT22;703;51.162;13.574;2023-08-21T03:35:57;20.60;99.90
1417;DHT22;703;51.162;13.574;2023-08-21T03:38:22;20.50;99.90
1417;DHT22;703;51.162;13.574;2023-08-21T03:40:48;20.50;99.90
1417;DHT22;703;51.162;13.574;2023-08-21T03:43:13;21.50;99.90
1417;DHT22;703;51.162;13.574;2023-08-21T03:45:39;20.80;99.90
1417;DHT22;703;51.162;13.574;2023-08-21T03:48:04;20.40;99.90
1417;DHT22;703;51.162;13.574;2023-08-21T03:50:29;20.40;99.90
1417;DHT22;703;51.162;13.574;2023-08-21T03:52:55;20.40;99.90
1417;DHT22;703;51.162;13.574;2023-08-21T03:55:20;20.40;99.90
1417;DHT22;703;51.162;13.574;2023-08-21T03:57:46;20.40;99.90
1417;DHT22;703;51.162;13.574;2023-08-21T04:00:11;20.80;99.90
1417;DHT22;703;51.162;13.574;2023-08-21T04:02:37;20.30;99.90
1417;DHT22;703;51.162;13.574;2023-08-21T04:05:02;20.30;99.90
1417;DHT22;703;51.162;13.574;2023-08-21T04:07:28;20.20;99.90
1417;DHT22;703;51.162;13.574;2023-08-21T04:09:53;20.20;99.90
1417;DHT22;703;51.162;13.574;2023-08-21T04:12:19;20.20;99.90
1417;DHT22;703;51.162;13.574;2023-08-21T04:14:44;20.10;99.90
1417;DHT22;703;51.162;13.574;2023-08-21T04:17:10;20.10;99.90
1417;DHT22;703;51.162;13.574;2023-08-21T04:19:35;20.00;99.90
1417;DHT22;703;51.162;13.574;2023-08-21T04:22:01;21.30;99.90
1417;DHT22;703;51.162;13.574;2023-08-21T04:24:26;20.10;99.90
1417;DHT22;703;51.162;13.574;2023-08-21T04:26:51;20.00;99.90
1417;DHT22;703;51.162;13.574;2023-08-21T04:29:17;20.10;99.90
1417;DHT22;703;51.162;13.574;2023-08-21T04:31:42;20.00;99.90
1417;DHT22;703;51.162;13.574;2023-08-21T04:34:08;20.00;99.90
1417;DHT22;703;51.162;13.574;2023-08-21T04:36:33;20.00;99.90
1417;DHT22;703;51.162;13.574;2023-08-21T04:38:59;20.00;99.90
1417;DHT22;703;51.162;13.574;2023-08-21T04:41:24;20.00;99.90
1417;DHT22;703;51.162;13.574;2023-08-21T04:43:50;20.00;99.90
1417;DHT22;703;51.162;13.574;2023-08-21T04:46:15;20.10;99.90
1417;DHT22;703;51.162;13.574;2023-08-21T04:48:40;20.00;99.90
1417;DHT22;703;51.162;13.574;2023-08-21T04:51:06;20.10;99.90
1417;DHT22;703;51.162;13.574;2023-08-21T04:53:31;20.10;99.90
1417;DHT22;703;51.162;13.574;2023-08-21T04:56:00;20.20;99.90
1417;DHT22;703;51.162;13.574;2023-08-21T04:58:25;20.20;99.90
1417;DHT22;703;51.162;13.574;2023-08-21T05:00:51;20.30;99.90
1417;DHT22;703;51.162;13.574;2023-08-21T05:03:16;23.20;99.90
1417;DHT22;703;51.162;13.574;2023-08-21T05:05:42;20.40;99.90
1417;DHT22;703;51.162;13.574;2023-08-21T05:08:07;23.80;99.90
1417;DHT22;703;51.162;13.574;2023-08-21T05:10:33;20.40;99.90
1417;DHT22;703;51.162;13.574;2023-08-21T05:12:58;23.60;99.90
1417;DHT22;703;51.162;13.574;2023-08-21T05:15:24;23.30;99.90
1417;DHT22;703;51.162;13.574;2023-08-21T05:17:50;24.30;99.90
1417;DHT22;703;51.162;13.574;2023-08-21T05:20:15;20.50;99.90
1417;DHT22;703;51.162;13.574;2023-08-21T05:22:41;20.80;99.90
1417;DHT22;703;51.162;13.574;2023-08-21T05:25:07;20.50;99.90
1417;DHT22;703;51.162;13.574;2023-08-21T05:27:32;20.60;99.90
1417;DHT22;703;51.162;13.574;2023-08-21T05:29:58;20.70;99.90
1417;DHT22;703;51.162;13.574;2023-08-21T05:32:23;21.60;99.90
1417;DHT22;703;51.162;13.574;2023-08-21T05:34:49;22.70;99.90
1417;DHT22;703;51.162;13.574;2023-08-21T05:37:14;21.00;99.90
1417;DHT22;703;51.162;13.574;2023-08-21T05:39:40;21.20;99.90
1417;DHT22;703;51.162;13.574;2023-08-21T05:42:05;24.20;99.90
1417;DHT22;703;51.162;13.574;2023-08-21T05:44:31;21.30;99.90
1417;DHT22;703;51.162;13.574;2023-08-21T05:46:56;21.40;99.90
1417;DHT22;703;51.162;13.574;2023-08-21T05:49:21;21.50;99.90
1417;DHT22;703;51.162;13.574;2023-08-21T05:51:47;21.70;99.90
1417;DHT22;703;51.162;13.574;2023-08-21T05:54:12;22.70;99.90
1417;DHT22;703;51.162;13.574;2023-08-21T05:56:38;22.00;99.90
1417;DHT22;703;51.162;13.574;2023-08-21T05:59:03;22.60;99.90
1417;DHT22;703;51.162;13.574;2023-08-21T06:01:29;21.60;99.90
1417;DHT22;703;51.162;13.574;2023-08-21T06:03:55;25.10;99.90
1417;DHT22;703;51.162;13.574;2023-08-21T06:06:20;23.70;99.90
1417;DHT22;703;51.162;13.574;2023-08-21T06:08:46;21.90;99.90
1417;DHT22;703;51.162;13.574;2023-08-21T06:11:11;22.20;99.90
1417;DHT22;703;51.162;13.574;2023-08-21T06:13:37;22.70;99.90
1417;DHT22;703;51.162;13.574;2023-08-21T06:16:02;25.70;99.90
1417;DHT22;703;51.162;13.574;2023-08-21T06:18:28;22.20;99.90
1417;DHT22;703;51.162;13.574;2023-08-21T06:20:54;22.30;99.90
1417;DHT22;703;51.162;13.574;2023-08-21T06:23:20;22.80;99.90
1417;DHT22;703;51.162;13.574;2023-08-21T06:25:49;22.40;99.90
1417;DHT22;703;51.162;13.574;2023-08-21T06:28:14;22.50;99.90
1417;DHT22;703;51.162;13.574;2023-08-21T06:30:40;22.60;99.90
1417;DHT22;703;51.162;13.574;2023-08-21T06:33:06;22.50;99.90
1417;DHT22;703;51.162;13.574;2023-08-21T06:35:31;22.70;99.90
1417;DHT22;703;51.162;13.574;2023-08-21T06:37:57;26.60;99.90
1417;DHT22;703;51.162;13.574;2023-08-21T06:40:22;22.90;99.90
1417;DHT22;703;51.162;13.574;2023-08-21T06:42:48;25.90;99.90
1417;DHT22;703;51.162;13.574;2023-08-21T06:45:16;23.60;99.90
1417;DHT22;703;51.162;13.574;2023-08-21T06:47:41;23.20;99.90
1417;DHT22;703;51.162;13.574;2023-08-21T06:50:10;23.50;99.90
1417;DHT22;703;51.162;13.574;2023-08-21T06:52:36;23.40;99.90
1417;DHT22;703;51.162;13.574;2023-08-21T06:55:01;23.40;99.90
1417;DHT22;703;51.162;13.574;2023-08-21T06:57:27;23.30;99.90
1417;DHT22;703;51.162;13.574;2023-08-21T06:59:56;23.40;99.90
1417;DHT22;703;51.162;13.574;2023-08-21T07:02:21;23.50;99.90
1417;DHT22;703;51.162;13.574;2023-08-21T07:04:47;23.50;99.90
1417;DHT22;703;51.162;13.574;2023-08-21T07:07:12;23.50;99.90
1417;DHT22;703;51.162;13.574;2023-08-21T07:09:43;23.70;99.90
1417;DHT22;703;51.162;13.574;2023-08-21T07:12:09;23.70;99.90
1417;DHT22;703;51.162;13.574;2023-08-21T07:14:34;23.90;99.90
1417;DHT22;703;51.162;13.574;2023-08-21T07:16:59;23.70;99.90
1417;DHT22;703;51.162;13.574;2023-08-21T07:19:27;23.80;99.90
1417;DHT22;703;51.162;13.574;2023-08-21T07:21:56;24.10;99.90
1417;DHT22;703;51.162;13.574;2023-08-21T07:24:21;24.30;99.90
1417;DHT22;703;51.162;13.574;2023-08-21T07:26:46;24.30;99.90
1417;DHT22;703;51.162;13.574;2023-08-21T07:29:12;24.30;99.90
1417;DHT22;703;51.162;13.574;2023-08-21T07:31:38;24.30;99.90
1417;DHT22;703;51.162;13.574;2023-08-21T07:34:03;24.50;99.90
1417;DHT22;703;51.162;13.574;2023-08-21T07:36:30;24.80;99.90
1417;DHT22;703;51.162;13.574;2023-08-21T07:38:56;24.80;99.90
1417;DHT22;703;51.162;13.574;2023-08-21T07:41:21;24.90;99.90
1417;DHT22;703;51.162;13.574;2023-08-21T07:43:47;24.90;99.90
1417;DHT22;703;51.162;13.574;2023-08-21T07:46:12;25.20;99.90
1417;DHT22;703;51.162;13.574;2023-08-21T07:48:41;27.50;99.90
1417;DHT22;703;51.162;13.574;2023-08-21T07:51:28;25.00;99.90
1417;DHT22;703;51.162;13.574;2023-08-21T07:53:53;25.40;99.90
1417;DHT22;703;51.162;13.574;2023-08-21T07:56:19;25.40;99.90
1417;DHT22;703;51.162;13.574;2023-08-21T07:58:45;25.50;99.90
1417;DHT22;703;51.162;13.574;2023-08-21T08:01:10;25.70;99.90
1417;DHT22;703;51.162;13.574;2023-08-21T08:03:36;25.70;99.90
1417;DHT22;703;51.162;13.574;2023-08-21T08:06:01;25.70;99.90
1417;DHT22;703;51.162;13.574;2023-08-21T08:08:27;25.50;99.90
1417;DHT22;703;51.162;13.574;2023-08-21T08:10:54;25.90;99.90
1417;DHT22;703;51.162;13.574;2023-08-21T08:13:20;26.50;99.90
1417;DHT22;703;51.162;13.574;2023-08-21T08:15:45;26.60;99.90
1417;DHT22;703;51.162;13.574;2023-08-21T08:18:14;26.30;99.90
1417;DHT22;703;51.162;13.574;2023-08-21T08:20:39;26.50;99.90
1417;DHT22;703;51.162;13.574;2023-08-21T08:23:05;26.70;99.90
1417;DHT22;703;51.162;13.574;2023-08-21T08:25:30;26.50;99.90
1417;DHT22;703;51.162;13.574;2023-08-21T08:27:56;26.70;99.90
1417;DHT22;703;51.162;13.574;2023-08-21T08:30:22;27.20;99.90
1417;DHT22;703;51.162;13.574;2023-08-21T08:32:49;27.10;99.90
1417;DHT22;703;51.162;13.574;2023-08-21T08:35:14;27.30;99.90
1417;DHT22;703;51.162;13.574;2023-08-21T08:37:43;27.40;99.90
1417;DHT22;703;51.162;13.574;2023-08-21T08:40:10;27.20;99.90
1417;DHT22;703;51.162;13.574;2023-08-21T08:42:35;27.20;99.90
1417;DHT22;703;51.162;13.574;2023-08-21T08:45:03;27.60;99.90
1417;DHT22;703;51.162;13.574;2023-08-21T08:47:33;27.60;99.90
1417;DHT22;703;51.162;13.574;2023-08-21T08:50:02;27.70;99.90
1417;DHT22;703;51.162;13.574;2023-08-21T08:52:29;27.80;99.90
1417;DHT22;703;51.162;13.574;2023-08-21T08:54:55;28.20;99.90
1417;DHT22;703;51.162;13.574;2023-08-21T08:57:21;28.40;99.90
1417;DHT22;703;51.162;13.574;2023-08-21T08:59:46;28.00;99.90
1417;DHT22;703;51.162;13.574;2023-08-21T09:02:12;27.90;99.90
1417;DHT22;703;51.162;13.574;2023-08-21T09:04:37;28.00;99.90
1417;DHT22;703;51.162;13.574;2023-08-21T09:07:09;27.90;99.90
1417;DHT22;703;51.162;13.574;2023-08-21T09:09:38;28.10;99.90
1417;DHT22;703;51.162;13.574;2023-08-21T09:12:11;28.30;99.90
1417;DHT22;703;51.162;13.574;2023-08-21T09:14:38;28.50;99.90
1417;DHT22;703;51.162;13.574;2023-08-21T09:17:04;28.50;99.90
1417;DHT22;703;51.162;13.574;2023-08-21T09:19:29;28.70;99.90
1417;DHT22;703;51.162;13.574;2023-08-21T09:21:55;28.80;99.90
1417;DHT22;703;51.162;13.574;2023-08-21T09:24:20;28.60;99.90
1417;DHT22;703;51.162;13.574;2023-08-21T09:26:46;28.60;99.90
1417;DHT22;703;51.162;13.574;2023-08-21T09:29:12;29.00;99.90
1417;DHT22;703;51.162;13.574;2023-08-21T09:31:37;29.20;99.90
1417;DHT22;703;51.162;13.574;2023-08-21T09:34:04;29.60;99.90
1417;DHT22;703;51.162;13.574;2023-08-21T09:36:32;29.20;99.90
1417;DHT22;703;51.162;13.574;2023-08-21T09:38:58;29.70;99.90
1417;DHT22;703;51.162;13.574;2023-08-21T09:41:24;30.00;99.90
1417;DHT22;703;51.162;13.574;2023-08-21T09:43:50;30.20;99.90
1417;DHT22;703;51.162;13.574;2023-08-21T09:46:16;30.20;99.90
1417;DHT22;703;51.162;13.574;2023-08-21T09:48:45;29.70;99.90
1417;DHT22;703;51.162;13.574;2023-08-21T09:51:11;29.90;99.90
1417;DHT22;703;51.162;13.574;2023-08-21T09:53:37;29.60;99.90
1417;DHT22;703;51.162;13.574;2023-08-21T09:56:03;29.20;99.90
1417;DHT22;703;51.162;13.574;2023-08-21T09:58:29;29.00;99.90
1417;DHT22;703;51.162;13.574;2023-08-21T10:00:56;29.00;99.90
1417;DHT22;703;51.162;13.574;2023-08-21T10:03:22;29.30;99.90
1417;DHT22;703;51.162;13.574;2023-08-21T10:05:48;29.10;99.90
1417;DHT22;703;51.162;13.574;2023-08-21T10:08:15;28.80;99.90
1417;DHT22;703;51.162;13.574;2023-08-21T10:10:41;28.30;99.90
1417;DHT22;703;51.162;13.574;2023-08-21T10:13:07;28.40;99.90
1417;DHT22;703;51.162;13.574;2023-08-21T10:15:33;29.00;99.90
1417;DHT22;703;51.162;13.574;2023-08-21T10:18:17;29.80;99.90
1417;DHT22;703;51.162;13.574;2023-08-21T10:20:43;30.00;99.90
1417;DHT22;703;51.162;13.574;2023-08-21T10:23:08;30.30;99.90
1417;DHT22;703;51.162;13.574;2023-08-21T10:25:34;30.40;99.90
1417;DHT22;703;51.162;13.574;2023-08-21T10:28:06;30.30;99.90
1417;DHT22;703;51.162;13.574;2023-08-21T10:30:31;30.40;99.90
1417;DHT22;703;51.162;13.574;2023-08-21T10:32:58;30.20;99.90
1417;DHT22;703;51.162;13.574;2023-08-21T10:35:30;29.90;99.90
1417;DHT22;703;51.162;13.574;2023-08-21T10:38:12;29.80;99.90
1417;DHT22;703;51.162;13.574;2023-08-21T10:40:41;29.80;99.90
1417;DHT22;703;51.162;13.574;2023-08-21T10:43:43;29.70;99.90
1417;DHT22;703;51.162;13.574;2023-08-21T10:46:08;29.70;99.90
1417;DHT22;703;51.162;13.574;2023-08-21T10:48:35;30.20;99.90
1417;DHT22;703;51.162;13.574;2023-08-21T10:51:01;30.50;99.90
1417;DHT22;703;51.162;13.574;2023-08-21T10:53:26;30.20;99.90
1417;DHT22;703;51.162;13.574;2023-08-21T10:55:53;30.10;99.90
1417;DHT22;703;51.162;13.574;2023-08-21T10:58:19;30.50;99.90
1417;DHT22;703;51.162;13.574;2023-08-21T11:00:44;30.30;99.90
1417;DHT22;703;51.162;13.574;2023-08-21T11:03:10;30.60;99.90
1417;DHT22;703;51.162;13.574;2023-08-21T11:05:35;30.50;99.90
1417;DHT22;703;51.162;13.574;2023-08-21T11:08:01;30.70;99.90
1417;DHT22;703;51.162;13.574;2023-08-21T11:10:31;30.90;99.90
1417;DHT22;703;51.162;13.574;2023-08-21T11:12:57;30.90;99.90
1417;DHT22;703;51.162;13.574;2023-08-21T11:15:24;30.90;99.90
1417;DHT22;703;51.162;13.574;2023-08-21T11:17:54;30.50;99.90
1417;DHT22;703;51.162;13.574;2023-08-21T11:20:19;30.70;99.90
1417;DHT22;703;51.162;13.574;2023-08-21T11:22:45;30.80;99.90
1417;DHT22;703;51.162;13.574;2023-08-21T11:25:10;30.50;99.90
1417;DHT22;703;51.162;13.574;2023-08-21T11:27:37;30.60;99.90
1417;DHT22;703;51.162;13.574;2023-08-21T11:30:02;30.40;99.90
1417;DHT22;703;51.162;13.574;2023-08-21T11:32:29;30.80;99.90
1417;DHT22;703;51.162;13.574;2023-08-21T11:34:55;31.30;99.90
1417;DHT22;703;51.162;13.574;2023-08-21T11:37:21;31.40;99.90
1417;DHT22;703;51.162;13.574;2023-08-21T11:39:48;31.00;99.90
1417;DHT22;703;51.162;13.574;2023-08-21T11:42:13;30.80;99.90
1417;DHT22;703;51.162;13.574;2023-08-21T11:45:01;31.50;99.90
1417;DHT22;703;51.162;13.574;2023-08-21T11:47:29;31.90;99.90
1417;DHT22;703;51.162;13.574;2023-08-21T11:49:55;31.70;99.90
1417;DHT22;703;51.162;13.574;2023-08-21T11:52:21;31.70;99.90
1417;DHT22;703;51.162;13.574;2023-08-21T11:54:48;32.20;99.90
1417;DHT22;703;51.162;13.574;2023-08-21T11:57:14;32.20;99.90
1417;DHT22;703;51.162;13.574;2023-08-21T11:59:40;32.00;99.90
1417;DHT22;703;51.162;13.574;2023-08-21T12:02:16;32.40;99.90
1417;DHT22;703;51.162;13.574;2023-08-21T12:04:42;31.90;99.90
1417;DHT22;703;51.162;13.574;2023-08-21T12:07:08;31.70;99.90
1417;DHT22;703;51.162;13.574;2023-08-21T12:09:34;32.10;99.90
1417;DHT22;703;51.162;13.574;2023-08-21T12:11:59;31.70;99.90
1417;DHT22;703;51.162;13.574;2023-08-21T12:14:25;31.80;99.90
1417;DHT22;703;51.162;13.574;2023-08-21T12:16:50;32.20;99.90
1417;DHT22;703;51.162;13.574;2023-08-21T12:19:16;32.10;99.90
1417;DHT22;703;51.162;13.574;2023-08-21T12:21:42;31.90;99.90
1417;DHT22;703;51.162;13.574;2023-08-21T12:24:08;31.80;99.90
1417;DHT22;703;51.162;13.574;2023-08-21T12:26:33;31.90;99.90
1417;DHT22;703;51.162;13.574;2023-08-21T12:28:59;31.80;99.90
1417;DHT22;703;51.162;13.574;2023-08-21T12:31:25;31.50;99.90
1417;DHT22;703;51.162;13.574;2023-08-21T12:33:51;31.40;99.90
1417;DHT22;703;51.162;13.574;2023-08-21T12:36:16;31.80;99.90
1417;DHT22;703;51.162;13.574;2023-08-21T12:38:42;32.20;99.90
1417;DHT22;703;51.162;13.574;2023-08-21T12:41:07;32.80;99.90
1417;DHT22;703;51.162;13.574;2023-08-21T12:43:33;33.00;99.90
1417;DHT22;703;51.162;13.574;2023-08-21T12:45:58;33.20;99.90
1417;DHT22;703;51.162;13.574;2023-08-21T12:48:24;33.20;99.90
1417;DHT22;703;51.162;13.574;2023-08-21T12:50:49;32.80;99.90
1417;DHT22;703;51.162;13.574;2023-08-21T12:53:15;32.70;99.90
1417;DHT22;703;51.162;13.574;2023-08-21T12:55:41;32.60;99.90
1417;DHT22;703;51.162;13.574;2023-08-21T12:58:07;32.30;99.90
1417;DHT22;703;51.162;13.574;2023-08-21T13:00:32;32.50;99.90
1417;DHT22;703;51.162;13.574;2023-08-21T13:02:58;32.30;99.90
1417;DHT22;703;51.162;13.574;2023-08-21T13:05:23;32.90;99.90
1417;DHT22;703;51.162;13.574;2023-08-21T13:07:49;32.50;99.90
1417;DHT22;703;51.162;13.574;2023-08-21T13:10:14;32.30;99.90
1417;DHT22;703;51.162;13.574;2023-08-21T13:12:40;32.90;99.90
1417;DHT22;703;51.162;13.574;2023-08-21T13:15:06;32.40;99.90
1417;DHT22;703;51.162;13.574;2023-08-21T13:17:33;32.30;99.90
1417;DHT22;703;51.162;13.574;2023-08-21T13:19:58;32.40;99.90
1417;DHT22;703;51.162;13.574;2023-08-21T13:22:24;32.60;99.90
1417;DHT22;703;51.162;13.574;2023-08-21T13:24:49;33.10;99.90
1417;DHT22;703;51.162;13.574;2023-08-21T13:27:15;33.10;99.90
1417;DHT22;703;51.162;13.574;2023-08-21T13:29:41;33.10;99.90
1417;DHT22;703;51.162;13.574;2023-08-21T13:32:06;33.00;99.90
1417;DHT22;703;51.162;13.574;2023-08-21T13:34:32;32.90;99.90
1417;DHT22;703;51.162;13.574;2023-08-21T13:36:58;33.10;99.90
1417;DHT22;703;51.162;13.574;2023-08-21T13:39:23;33.40;99.90
1417;DHT22;703;51.162;13.574;2023-08-21T13:41:51;33.10;99.90
1417;DHT22;703;51.162;13.574;2023-08-21T13:44:16;33.20;99.90
1417;DHT22;703;51.162;13.574;2023-08-21T13:46:42;32.80;99.90
1417;DHT22;703;51.162;13.574;2023-08-21T13:49:07;32.80;99.90
1417;DHT22;703;51.162;13.574;2023-08-21T13:51:34;33.00;99.90
1417;DHT22;703;51.162;13.574;2023-08-21T13:54:00;33.10;99.90
1417;DHT22;703;51.162;13.574;2023-08-21T13:56:25;33.40;99.90
1417;DHT22;703;51.162;13.574;2023-08-21T13:58:51;32.90;99.90
1417;DHT22;703;51.162;13.574;2023-08-21T14:01:16;32.90;99.90
1417;DHT22;703;51.162;13.574;2023-08-21T14:03:42;32.50;99.90
1417;DHT22;703;51.162;13.574;2023-08-21T14:06:08;31.20;99.90
1417;DHT22;703;51.162;13.574;2023-08-21T14:08:36;31.20;99.90
1417;DHT22;703;51.162;13.574;2023-08-21T14:11:02;31.30;99.90
1417;DHT22;703;51.162;13.574;2023-08-21T14:13:27;31.30;99.90
1417;DHT22;703;51.162;13.574;2023-08-21T14:15:53;32.00;99.90
1417;DHT22;703;51.162;13.574;2023-08-21T14:18:19;32.70;99.90
1417;DHT22;703;51.162;13.574;2023-08-21T14:20:44;32.90;99.90
1417;DHT22;703;51.162;13.574;2023-08-21T14:23:10;33.10;99.90
1417;DHT22;703;51.162;13.574;2023-08-21T14:25:35;32.70;99.90
1417;DHT22;703;51.162;13.574;2023-08-21T14:28:02;31.90;99.90
1417;DHT22;703;51.162;13.574;2023-08-21T14:30:28;31.50;99.90
1417;DHT22;703;51.162;13.574;2023-08-21T14:32:53;31.00;99.90
1417;DHT22;703;51.162;13.574;2023-08-21T14:35:19;30.60;99.90
1417;DHT22;703;51.162;13.574;2023-08-21T14:37:44;30.40;99.90
1417;DHT22;703;51.162;13.574;2023-08-21T14:40:10;30.60;99.90
1417;DHT22;703;51.162;13.574;2023-08-21T14:42:36;30.60;99.90
1417;DHT22;703;51.162;13.574;2023-08-21T14:45:02;30.50;99.90
1417;DHT22;703;51.162;13.574;2023-08-21T14:47:28;30.50;99.90
1417;DHT22;703;51.162;13.574;2023-08-21T14:49:54;30.20;99.90
1417;DHT22;703;51.162;13.574;2023-08-21T14:52:20;30.20;99.90
1417;DHT22;703;51.162;13.574;2023-08-21T14:54:47;30.10;99.90
1417;DHT22;703;51.162;13.574;2023-08-21T14:57:13;30.30;99.90
1417;DHT22;703;51.162;13.574;2023-08-21T14:59:38;30.50;99.90
1417;DHT22;703;51.162;13.574;2023-08-21T15:02:04;31.20;99.90
1417;DHT22;703;51.162;13.574;2023-08-21T15:04:29;31.70;99.90
1417;DHT22;703;51.162;13.574;2023-08-21T15:06:55;31.70;99.90
1417;DHT22;703;51.162;13.574;2023-08-21T15:09:20;31.30;99.90
1417;DHT22;703;51.162;13.574;2023-08-21T15:11:46;31.20;99.90
1417;DHT22;703;51.162;13.574;2023-08-21T15:14:12;31.40;99.90
1417;DHT22;703;51.162;13.574;2023-08-21T15:16:37;31.20;99.90
1417;DHT22;703;51.162;13.574;2023-08-21T15:19:03;31.60;99.90
1417;DHT22;703;51.162;13.574;2023-08-21T15:21:28;31.50;99.90
1417;DHT22;703;51.162;13.574;2023-08-21T15:23:54;31.40;99.90
1417;DHT22;703;51.162;13.574;2023-08-21T15:26:20;31.30;99.90
1417;DHT22;703;51.162;13.574;2023-08-21T15:28:46;31.60;99.90
1417;DHT22;703;51.162;13.574;2023-08-21T15:31:11;31.50;99.90
1417;DHT22;703;51.162;13.574;2023-08-21T15:33:37;31.00;99.90
1417;DHT22;703;51.162;13.574;2023-08-21T15:36:02;31.00;99.90
1417;DHT22;703;51.162;13.574;2023-08-21T15:38:28;31.20;99.90
1417;DHT22;703;51.162;13.574;2023-08-21T15:40:53;30.90;99.90
1417;DHT22;703;51.162;13.574;2023-08-21T15:43:19;30.90;99.90
1417;DHT22;703;51.162;13.574;2023-08-21T15:45:44;31.40;99.90
1417;DHT22;703;51.162;13.574;2023-08-21T15:48:10;31.30;99.90
1417;DHT22;703;51.162;13.574;2023-08-21T15:50:35;31.20;99.90
1417;DHT22;703;51.162;13.574;2023-08-21T15:53:01;30.90;99.90
1417;DHT22;703;51.162;13.574;2023-08-21T15:55:26;30.70;99.90
1417;DHT22;703;51.162;13.574;2023-08-21T15:57:52;31.00;99.90